Time,TemperatureF,DewpointF,PressureIn,WindDirection,WindDirectionDegrees,WindSpeedMPH,WindSpeedGustMPH,Humidity,HourlyPrecipIn,Conditions,Clouds,dailyrainin,SolarRadiationWatts/m^2,SoftwareType,DateUTC
2013-04-12 00:12:00,14.0,3.0,-100.00,NNE,18,1.0,5.0,62,0.00,,,0.00,0.000000,,2013-04-12 08:12:00,
2013-04-12 00:22:00,14.0,3.0,-100.00,NNE,18,1.0,5.0,62,0.00,,,0.00,0.000000,,2013-04-12 08:22:00,
2013-04-12 00:32:00,14.0,3.0,-100.00,NNE,18,1.0,5.0,62,0.00,,,0.00,0.000000,,2013-04-12 08:32:00,
2013-04-12 00:42:00,14.0,3.0,-100.00,NNE,18,1.0,5.0,62,0.00,,,0.00,0.000000,,2013-04-12 08:42:00,
2013-04-12 00:52:00,14.0,3.0,-100.00,NNE,18,1.0,5.0,62,0.00,,,0.00,0.000000,,2013-04-12 08:52:00,
2013-04-12 01:22:00,9.0,2.0,-100.00,West,268,0.0,3.0,74,0.00,,,0.00,0.000000,,2013-04-12 09:22:00,
2013-04-12 01:32:00,9.0,2.0,-100.00,West,268,0.0,3.0,74,0.00,,,0.00,0.000000,,2013-04-12 09:32:00,
2013-04-12 01:43:00,9.0,2.0,-100.00,West,268,0.0,3.0,74,0.00,,,0.00,0.000000,,2013-04-12 09:43:00,
2013-04-12 01:52:00,9.0,2.0,-100.00,West,268,0.0,3.0,74,0.00,,,0.00,0.000000,,2013-04-12 09:52:00,
2013-04-12 02:12:00,7.0,2.0,-100.00,NNW,344,0.0,0.0,79,0.00,,,0.00,0.000000,,2013-04-12 10:12:00,
2013-04-12 02:22:00,7.0,2.0,-100.00,NNW,344,0.0,0.0,79,0.00,,,0.00,0.000000,,2013-04-12 10:22:00,
2013-04-12 02:33:00,7.0,2.0,-100.00,NNW,344,0.0,0.0,79,0.00,,,0.00,0.000000,,2013-04-12 10:33:00,
2013-04-12 02:42:00,7.0,2.0,-100.00,NNW,344,0.0,0.0,79,0.00,,,0.00,0.000000,,2013-04-12 10:42:00,
2013-04-12 02:52:00,7.0,2.0,-100.00,NNW,344,0.0,0.0,79,0.00,,,0.00,0.000000,,2013-04-12 10:52:00,
2013-04-12 03:12:00,5.0,0.0,-100.00,North,352,0.0,2.0,79,0.00,,,0.00,0.000000,,2013-04-12 11:12:00,
2013-04-12 03:22:00,5.0,0.0,-100.00,North,352,0.0,2.0,79,0.00,,,0.00,0.000000,,2013-04-12 11:22:00,
2013-04-12 03:32:00,5.0,0.0,-100.00,North,352,0.0,2.0,79,0.00,,,0.00,0.000000,,2013-04-12 11:32:00,
2013-04-12 03:42:00,5.0,0.0,-100.00,North,352,0.0,2.0,79,0.00,,,0.00,0.000000,,2013-04-12 11:42:00,
2013-04-12 03:51:00,5.0,0.0,-100.00,North,352,0.0,2.0,79,0.00,,,0.00,0.000000,,2013-04-12 11:51:00,
2013-04-12 04:22:00,6.0,2.0,-100.00,NW,307,0.0,1.0,83,0.00,,,0.00,0.000000,,2013-04-12 12:22:00,
2013-04-12 04:32:00,6.0,2.0,-100.00,NW,307,0.0,1.0,83,0.00,,,0.00,0.000000,,2013-04-12 12:32:00,
2013-04-12 04:42:00,6.0,2.0,-100.00,NW,307,0.0,1.0,83,0.00,,,0.00,0.000000,,2013-04-12 12:42:00,
2013-04-12 04:52:00,6.0,2.0,-100.00,NW,307,0.0,1.0,83,0.00,,,0.00,0.000000,,2013-04-12 12:52:00,
2013-04-12 05:12:00,5.0,2.0,-100.00,NW,311,0.0,2.0,87,0.00,,,0.00,0.000000,,2013-04-12 13:12:00,
2013-04-12 05:22:00,5.0,2.0,-100.00,NW,311,0.0,2.0,87,0.00,,,0.00,0.000000,,2013-04-12 13:22:00,
2013-04-12 05:32:00,5.0,2.0,-100.00,NW,311,0.0,2.0,87,0.00,,,0.00,0.000000,,2013-04-12 13:32:00,
2013-04-12 05:42:00,5.0,2.0,-100.00,NW,311,0.0,2.0,87,0.00,,,0.00,0.000000,,2013-04-12 13:42:00,
2013-04-12 05:52:00,5.0,2.0,-100.00,NW,311,0.0,2.0,87,0.00,,,0.00,0.000000,,2013-04-12 13:52:00,
2013-04-12 06:12:00,4.0,1.0,-100.00,NW,308,1.0,2.0,89,0.00,,,0.00,0.000000,,2013-04-12 14:12:00,
2013-04-12 06:22:00,4.0,1.0,-100.00,NW,308,1.0,2.0,89,0.00,,,0.00,0.000000,,2013-04-12 14:22:00,
2013-04-12 06:32:00,4.0,1.0,-100.00,NW,308,1.0,2.0,89,0.00,,,0.00,0.000000,,2013-04-12 14:32:00,
2013-04-12 06:42:00,4.0,1.0,-100.00,NW,308,1.0,2.0,89,0.00,,,0.00,0.000000,,2013-04-12 14:42:00,
2013-04-12 06:51:00,4.0,1.0,-100.00,NW,308,1.0,2.0,89,0.00,,,0.00,0.000000,,2013-04-12 14:51:00,
2013-04-12 07:22:00,3.0,-1.0,-100.00,NW,319,0.0,2.0,84,0.00,,,-99.99,1.000000,,2013-04-12 15:22:00,
2013-04-12 07:33:00,3.0,-1.0,-100.00,NW,319,0.0,2.0,84,0.00,,,-99.99,1.000000,,2013-04-12 15:33:00,
2013-04-12 07:43:00,3.0,-1.0,-100.00,NW,319,0.0,2.0,84,0.00,,,-99.99,1.000000,,2013-04-12 15:43:00,
2013-04-12 07:52:00,3.0,-1.0,-100.00,NW,319,0.0,2.0,84,0.00,,,-99.99,1.000000,,2013-04-12 15:52:00,
2013-04-12 08:22:00,3.0,1.0,-100.00,NW,307,0.0,1.0,89,0.00,,,-99.99,14.000000,,2013-04-12 16:22:00,
2013-04-12 08:33:00,3.0,1.0,-100.00,NW,307,0.0,1.0,89,0.00,,,-99.99,14.000000,,2013-04-12 16:33:00,
2013-04-12 08:42:00,3.0,1.0,-100.00,NW,307,0.0,1.0,89,0.00,,,-99.99,14.000000,,2013-04-12 16:42:00,
2013-04-12 08:52:00,3.0,1.0,-100.00,NW,307,0.0,1.0,89,0.00,,,-99.99,14.000000,,2013-04-12 16:52:00,
2013-04-12 09:12:00,9.0,5.0,-100.00,SSW,201,0.0,1.0,83,0.00,,,0.00,40.000000,,2013-04-12 17:12:00,
2013-04-12 09:22:00,9.0,5.0,-100.00,SSW,201,0.0,1.0,83,0.00,,,0.00,40.000000,,2013-04-12 17:22:00,
2013-04-12 09:33:00,9.0,5.0,-100.00,SSW,201,0.0,1.0,83,0.00,,,0.00,40.000000,,2013-04-12 17:33:00,
2013-04-12 09:44:00,9.0,5.0,-100.00,SSW,201,0.0,1.0,83,0.00,,,0.00,40.000000,,2013-04-12 17:44:00,
2013-04-12 11:26:00,27.0,2.0,-100.00,NNE,20,2.0,6.0,33,0.00,,,0.00,400.000000,,2013-04-12 19:26:00,
2013-04-12 11:32:00,27.0,2.0,-100.00,NNE,20,2.0,6.0,33,0.00,,,0.00,400.000000,,2013-04-12 19:32:00,
2013-04-12 11:42:00,27.0,2.0,-100.00,NNE,20,2.0,6.0,33,0.00,,,0.00,400.000000,,2013-04-12 19:42:00,
2013-04-12 11:52:00,27.0,2.0,-100.00,NNE,20,2.0,6.0,33,0.00,,,0.00,400.000000,,2013-04-12 19:52:00,
2013-04-12 12:12:00,30.0,0.0,-100.00,WNW,282,3.0,9.0,27,0.00,,,0.00,620.000000,,2013-04-12 20:12:00,
2013-04-12 12:22:00,30.0,0.0,-100.00,WNW,282,3.0,9.0,27,0.00,,,0.00,620.000000,,2013-04-12 20:22:00,
2013-04-12 12:32:00,30.0,0.0,-100.00,WNW,282,3.0,9.0,27,0.00,,,0.00,620.000000,,2013-04-12 20:32:00,
2013-04-12 12:42:00,30.0,0.0,-100.00,WNW,282,3.0,9.0,27,0.00,,,0.00,620.000000,,2013-04-12 20:42:00,
2013-04-12 12:52:00,30.0,0.0,-100.00,WNW,282,3.0,9.0,27,0.00,,,0.00,620.000000,,2013-04-12 20:52:00,
2013-04-12 13:22:00,32.0,-2.0,-100.00,North,358,4.0,9.0,23,0.00,,,0.00,720.000000,,2013-04-12 21:22:00,
2013-04-12 14:22:00,34.0,-2.0,-100.00,NNW,346,4.0,10.0,21,-99.99,,,0.00,778.000000,,2013-04-12 22:22:00,
2013-04-12 14:42:00,34.0,-2.0,-100.00,NNW,346,4.0,10.0,21,-99.99,,,0.00,778.000000,,2013-04-12 22:42:00,
2013-04-12 14:52:00,34.0,-2.0,-100.00,NNW,346,4.0,10.0,21,-99.99,,,0.00,778.000000,,2013-04-12 22:52:00,
2013-04-12 15:12:00,35.0,-4.0,-100.00,NNW,338,4.0,9.0,18,0.00,,,0.00,786.000000,,2013-04-12 23:12:00,
2013-04-12 15:22:00,35.0,-4.0,-100.00,NNW,338,4.0,9.0,18,0.00,,,0.00,786.000000,,2013-04-12 23:22:00,
2013-04-12 16:12:00,37.0,-3.0,-100.00,WNW,298,4.0,11.0,18,0.00,,,0.00,748.000000,,2013-04-13 00:12:00,
2013-04-12 16:22:00,37.0,-3.0,-100.00,WNW,298,4.0,11.0,18,0.00,,,0.00,748.000000,,2013-04-13 00:22:00,
2013-04-12 17:12:00,35.0,-2.0,-100.00,NW,309,4.0,11.0,20,-99.99,,,-99.99,664.000000,,2013-04-13 01:12:00,
2013-04-12 17:22:00,35.0,-2.0,-100.00,NW,309,4.0,11.0,20,-99.99,,,-99.99,664.000000,,2013-04-13 01:22:00,
2013-04-12 17:32:00,35.0,-2.0,-100.00,NW,309,4.0,11.0,20,-99.99,,,-99.99,664.000000,,2013-04-13 01:32:00,
2013-04-12 17:42:00,35.0,-2.0,-100.00,NW,309,4.0,11.0,20,-99.99,,,-99.99,664.000000,,2013-04-13 01:42:00,
2013-04-12 17:51:00,35.0,-2.0,-100.00,NW,309,4.0,11.0,20,-99.99,,,-99.99,664.000000,,2013-04-13 01:51:00,
2013-04-12 18:22:00,34.0,-2.0,-100.00,WNW,297,4.0,11.0,21,0.00,,,0.00,542.000000,,2013-04-13 02:22:00,
2013-04-12 18:32:00,34.0,-2.0,-100.00,WNW,297,4.0,11.0,21,0.00,,,0.00,542.000000,,2013-04-13 02:32:00,
2013-04-12 18:42:00,34.0,-2.0,-100.00,WNW,297,4.0,11.0,21,0.00,,,0.00,542.000000,,2013-04-13 02:42:00,
2013-04-12 18:52:00,34.0,-2.0,-100.00,WNW,297,4.0,11.0,21,0.00,,,0.00,542.000000,,2013-04-13 02:52:00,
2013-04-12 19:22:00,32.0,-1.0,-100.00,NW,326,3.0,10.0,24,0.00,,,0.00,340.000000,,2013-04-13 03:22:00,
2013-04-12 19:33:00,32.0,-1.0,-100.00,NW,326,3.0,10.0,24,0.00,,,0.00,340.000000,,2013-04-13 03:33:00,
2013-04-12 19:42:00,32.0,-1.0,-100.00,NW,326,3.0,10.0,24,0.00,,,0.00,340.000000,,2013-04-13 03:42:00,
2013-04-12 19:52:00,32.0,-1.0,-100.00,NW,326,3.0,10.0,24,0.00,,,0.00,340.000000,,2013-04-13 03:52:00,
2013-04-12 20:12:00,29.0,-1.0,-100.00,WNW,294,3.0,9.0,27,0.00,,,0.00,127.000000,,2013-04-13 04:12:00,
2013-04-12 20:23:00,29.0,-1.0,-100.00,WNW,294,3.0,9.0,27,0.00,,,0.00,127.000000,,2013-04-13 04:23:00,
2013-04-12 20:33:00,29.0,-1.0,-100.00,WNW,294,3.0,9.0,27,0.00,,,0.00,127.000000,,2013-04-13 04:33:00,
2013-04-12 20:42:00,29.0,-1.0,-100.00,WNW,294,3.0,9.0,27,0.00,,,0.00,127.000000,,2013-04-13 04:42:00,
2013-04-12 20:53:00,29.0,-1.0,-100.00,WNW,294,3.0,9.0,27,0.00,,,0.00,127.000000,,2013-04-13 04:53:00,
2013-04-12 21:12:00,26.0,0.0,-100.00,WNW,291,3.0,9.0,32,0.00,,,0.00,26.000000,,2013-04-13 05:12:00,
2013-04-12 21:22:00,26.0,0.0,-100.00,WNW,291,3.0,9.0,32,0.00,,,0.00,26.000000,,2013-04-13 05:22:00,
2013-04-12 21:32:00,26.0,0.0,-100.00,WNW,291,3.0,9.0,32,0.00,,,0.00,26.000000,,2013-04-13 05:32:00,
2013-04-12 21:42:00,26.0,0.0,-100.00,WNW,291,3.0,9.0,32,0.00,,,0.00,26.000000,,2013-04-13 05:42:00,
2013-04-12 21:52:00,26.0,0.0,-100.00,WNW,291,3.0,9.0,32,0.00,,,0.00,26.000000,,2013-04-13 05:52:00,
2013-04-12 22:23:00,22.0,0.0,-100.00,SW,230,1.0,6.0,37,0.00,,,0.00,4.000000,,2013-04-13 06:23:00,
2013-04-12 22:34:00,22.0,0.0,-100.00,SW,230,1.0,6.0,37,0.00,,,0.00,4.000000,,2013-04-13 06:34:00,
2013-04-12 22:53:00,22.0,0.0,-100.00,SW,230,1.0,6.0,37,0.00,,,0.00,4.000000,,2013-04-13 06:53:00,
2013-04-12 23:14:00,19.0,3.0,-100.00,WSW,254,0.0,3.0,48,0.00,,,0.00,0.000000,,2013-04-13 07:14:00,
2013-04-12 23:23:00,19.0,3.0,-100.00,WSW,254,0.0,3.0,48,0.00,,,0.00,0.000000,,2013-04-13 07:23:00,
2013-04-12 23:33:00,19.0,3.0,-100.00,WSW,254,0.0,3.0,48,0.00,,,0.00,0.000000,,2013-04-13 07:33:00,
2013-04-12 23:43:00,19.0,3.0,-100.00,WSW,254,0.0,3.0,48,0.00,,,0.00,0.000000,,2013-04-13 07:43:00,
2013-04-12 23:52:00,19.0,3.0,-100.00,WSW,254,0.0,3.0,48,0.00,,,0.00,0.000000,,2013-04-13 07:52:00,